sensor_id;sensor_type;location;lat;lon;timestamp;P1;durP1;ratioP1;P2;durP2;ratioP2
20166;SDS011;10243;49.118;8.508;2023-04-09T00:00:13;16.05;;;13.60;;
20166;SDS011;10243;49.118;8.508;2023-04-09T00:00:34;16.05;;;13.32;;
20166;SDS011;10243;49.118;8.508;2023-04-09T00:01:00;16.23;;;13.67;;
20166;SDS011;10243;49.118;8.508;2023-04-09T00:01:20;16.23;;;13.57;;
20166;SDS011;10243;49.118;8.508;2023-04-09T00:01:40;14.63;;;12.87;;
20166;SDS011;10243;49.118;8.508;2023-04-09T00:02:02;16.35;;;13.07;;
20166;SDS011;10243;49.118;8.508;2023-04-09T00:02:22;16.42;;;13.13;;
20166;SDS011;10243;49.118;8.508;2023-04-09T00:02:44;17.10;;;12.88;;
20166;SDS011;10243;49.118;8.508;2023-04-09T00:03:04;16.30;;;13.25;;
20166;SDS011;10243;49.118;8.508;2023-04-09T00:03:26;16.27;;;13.52;;
20166;SDS011;10243;49.118;8.508;2023-04-09T00:03:46;15.70;;;13.13;;
20166;SDS011;10243;49.118;8.508;2023-04-09T00:04:07;15.17;;;12.67;;
20166;SDS011;10243;49.118;8.508;2023-04-09T00:04:27;15.47;;;12.83;;
20166;SDS011;10243;49.118;8.508;2023-04-09T00:04:47;15.70;;;13.30;;
20166;SDS011;10243;49.118;8.508;2023-04-09T00:05:09;14.90;;;13.20;;
20166;SDS011;10243;49.118;8.508;2023-04-09T00:05:29;16.17;;;13.43;;
20166;SDS011;10243;49.118;8.508;2023-04-09T00:05:50;15.67;;;12.80;;
20166;SDS011;10243;49.118;8.508;2023-04-09T00:06:10;15.27;;;13.35;;
20166;SDS011;10243;49.118;8.508;2023-04-09T00:06:32;16.58;;;13.23;;
20166;SDS011;10243;49.118;8.508;2023-04-09T00:06:52;17.30;;;13.18;;
20166;SDS011;10243;49.118;8.508;2023-04-09T00:07:13;16.53;;;13.30;;
20166;SDS011;10243;49.118;8.508;2023-04-09T00:07:33;17.17;;;13.40;;
20166;SDS011;10243;49.118;8.508;2023-04-09T00:07:54;14.60;;;12.95;;
20166;SDS011;10243;49.118;8.508;2023-04-09T00:08:15;16.40;;;13.23;;
20166;SDS011;10243;49.118;8.508;2023-04-09T00:08:35;15.18;;;13.23;;
20166;SDS011;10243;49.118;8.508;2023-04-09T00:08:56;15.47;;;13.10;;
20166;SDS011;10243;49.118;8.508;2023-04-09T00:09:16;15.77;;;13.27;;
20166;SDS011;10243;49.118;8.508;2023-04-09T00:09:39;15.65;;;13.10;;
20166;SDS011;10243;49.118;8.508;2023-04-09T00:10:00;16.00;;;13.80;;
20166;SDS011;10243;49.118;8.508;2023-04-09T00:10:20;15.07;;;13.03;;
20166;SDS011;10243;49.118;8.508;2023-04-09T00:10:41;14.73;;;12.88;;
20166;SDS011;10243;49.118;8.508;2023-04-09T00:11:02;14.75;;;12.93;;
20166;SDS011;10243;49.118;8.508;2023-04-09T00:11:24;15.93;;;12.65;;
20166;SDS011;10243;49.118;8.508;2023-04-09T00:11:44;16.13;;;13.03;;
20166;SDS011;10243;49.118;8.508;2023-04-09T00:12:05;16.13;;;12.95;;
20166;SDS011;10243;49.118;8.508;2023-04-09T00:12:26;15.93;;;12.88;;
20166;SDS011;10243;49.118;8.508;2023-04-09T00:12:49;14.30;;;12.80;;
20166;SDS011;10243;49.118;8.508;2023-04-09T00:13:09;15.50;;;13.13;;
20166;SDS011;10243;49.118;8.508;2023-04-09T00:13:30;15.40;;;13.35;;
20166;SDS011;10243;49.118;8.508;2023-04-09T00:13:51;16.08;;;13.63;;
20166;SDS011;10243;49.118;8.508;2023-04-09T00:14:12;14.10;;;12.60;;
20166;SDS011;10243;49.118;8.508;2023-04-09T00:14:32;15.50;;;12.75;;
20166;SDS011;10243;49.118;8.508;2023-04-09T00:14:53;15.75;;;12.98;;
20166;SDS011;10243;49.118;8.508;2023-04-09T00:15:14;15.35;;;13.55;;
20166;SDS011;10243;49.118;8.508;2023-04-09T00:15:35;15.83;;;13.63;;
20166;SDS011;10243;49.118;8.508;2023-04-09T00:15:55;16.58;;;13.52;;
20166;SDS011;10243;49.118;8.508;2023-04-09T00:16:16;15.77;;;13.77;;
20166;SDS011;10243;49.118;8.508;2023-04-09T00:16:37;14.95;;;13.35;;
20166;SDS011;10243;49.118;8.508;2023-04-09T00:16:57;14.53;;;13.00;;
20166;SDS011;10243;49.118;8.508;2023-04-09T00:17:18;16.13;;;13.70;;
20166;SDS011;10243;49.118;8.508;2023-04-09T00:17:38;15.27;;;13.10;;
20166;SDS011;10243;49.118;8.508;2023-04-09T00:17:58;15.27;;;12.70;;
20166;SDS011;10243;49.118;8.508;2023-04-09T00:18:20;15.88;;;12.93;;
20166;SDS011;10243;49.118;8.508;2023-04-09T00:18:40;14.87;;;12.77;;
20166;SDS011;10243;49.118;8.508;2023-04-09T00:19:01;16.30;;;13.00;;
20166;SDS011;10243;49.118;8.508;2023-04-09T00:19:21;15.27;;;12.70;;
20166;SDS011;10243;49.118;8.508;2023-04-09T00:19:43;15.13;;;13.32;;
20166;SDS011;10243;49.118;8.508;2023-04-09T00:20:04;17.83;;;13.77;;
20166;SDS011;10243;49.118;8.508;2023-04-09T00:20:25;16.15;;;13.18;;
20166;SDS011;10243;49.118;8.508;2023-04-09T00:20:45;15.27;;;13.13;;
20166;SDS011;10243;49.118;8.508;2023-04-09T00:21:06;16.42;;;13.73;;
20166;SDS011;10243;49.118;8.508;2023-04-09T00:21:27;15.75;;;13.00;;
20166;SDS011;10243;49.118;8.508;2023-04-09T00:21:48;19.40;;;13.40;;
20166;SDS011;10243;49.118;8.508;2023-04-09T00:22:08;17.50;;;13.52;;
20166;SDS011;10243;49.118;8.508;2023-04-09T00:22:30;15.73;;;13.25;;
20166;SDS011;10243;49.118;8.508;2023-04-09T00:22:50;15.63;;;13.53;;
20166;SDS011;10243;49.118;8.508;2023-04-09T00:23:11;15.10;;;13.23;;
20166;SDS011;10243;49.118;8.508;2023-04-09T00:23:31;16.02;;;13.18;;
20166;SDS011;10243;49.118;8.508;2023-04-09T00:23:53;15.32;;;13.32;;
20166;SDS011;10243;49.118;8.508;2023-04-09T00:24:13;18.20;;;13.35;;
20166;SDS011;10243;49.118;8.508;2023-04-09T00:24:34;15.13;;;13.00;;
20166;SDS011;10243;49.118;8.508;2023-04-09T00:24:54;16.10;;;13.10;;
20166;SDS011;10243;49.118;8.508;2023-04-09T00:25:16;17.75;;;13.77;;
20166;SDS011;10243;49.118;8.508;2023-04-09T00:25:37;17.42;;;14.07;;
20166;SDS011;10243;49.118;8.508;2023-04-09T00:25:57;15.32;;;13.20;;
20166;SDS011;10243;49.118;8.508;2023-04-09T00:26:18;15.23;;;13.33;;
20166;SDS011;10243;49.118;8.508;2023-04-09T00:26:40;14.97;;;13.03;;
20166;SDS011;10243;49.118;8.508;2023-04-09T00:27:01;18.38;;;13.77;;
20166;SDS011;10243;49.118;8.508;2023-04-09T00:27:21;19.05;;;13.65;;
20166;SDS011;10243;49.118;8.508;2023-04-09T00:27:42;14.80;;;13.13;;
20166;SDS011;10243;49.118;8.508;2023-04-09T00:28:02;16.07;;;13.97;;
20166;SDS011;10243;49.118;8.508;2023-04-09T00:28:23;16.15;;;13.60;;
20166;SDS011;10243;49.118;8.508;2023-04-09T00:28:44;15.48;;;13.02;;
20166;SDS011;10243;49.118;8.508;2023-04-09T00:29:05;15.63;;;13.43;;
20166;SDS011;10243;49.118;8.508;2023-04-09T00:29:25;16.47;;;14.03;;
20166;SDS011;10243;49.118;8.508;2023-04-09T00:29:46;16.38;;;13.90;;
20166;SDS011;10243;49.118;8.508;2023-04-09T00:30:07;15.83;;;13.43;;
20166;SDS011;10243;49.118;8.508;2023-04-09T00:30:29;15.07;;;13.25;;
20166;SDS011;10243;49.118;8.508;2023-04-09T00:30:49;15.57;;;13.65;;
20166;SDS011;10243;49.118;8.508;2023-04-09T00:31:10;15.48;;;13.70;;
20166;SDS011;10243;49.118;8.508;2023-04-09T00:31:30;17.00;;;14.03;;
20166;SDS011;10243;49.118;8.508;2023-04-09T00:31:52;16.40;;;13.65;;
20166;SDS011;10243;49.118;8.508;2023-04-09T00:32:13;17.05;;;13.05;;
20166;SDS011;10243;49.118;8.508;2023-04-09T00:32:34;16.30;;;13.43;;
20166;SDS011;10243;49.118;8.508;2023-04-09T00:32:55;14.93;;;12.88;;
20166;SDS011;10243;49.118;8.508;2023-04-09T00:33:15;15.00;;;13.10;;
20166;SDS011;10243;49.118;8.508;2023-04-09T00:33:36;15.20;;;13.40;;
20166;SDS011;10243;49.118;8.508;2023-04-09T00:33:57;15.05;;;13.38;;
20166;SDS011;10243;49.118;8.508;2023-04-09T00:34:18;14.70;;;13.07;;
20166;SDS011;10243;49.118;8.508;2023-04-09T00:34:38;15.68;;;13.25;;
20166;SDS011;10243;49.118;8.508;2023-04-09T00:34:58;16.67;;;14.40;;
20166;SDS011;10243;49.118;8.508;2023-04-09T00:35:20;16.83;;;14.32;;
20166;SDS011;10243;49.118;8.508;2023-04-09T00:35:41;18.93;;;13.87;;
20166;SDS011;10243;49.118;8.508;2023-04-09T00:36:01;16.85;;;14.07;;
20166;SDS011;10243;49.118;8.508;2023-04-09T00:36:22;17.47;;;13.40;;
20166;SDS011;10243;49.118;8.508;2023-04-09T00:36:42;17.77;;;13.68;;
20166;SDS011;10243;49.118;8.508;2023-04-09T00:37:04;16.60;;;13.77;;
20166;SDS011;10243;49.118;8.508;2023-04-09T00:37:24;16.70;;;13.60;;
20166;SDS011;10243;49.118;8.508;2023-04-09T00:37:45;16.17;;;13.65;;
20166;SDS011;10243;49.118;8.508;2023-04-09T00:38:05;18.13;;;14.57;;
20166;SDS011;10243;49.118;8.508;2023-04-09T00:38:27;17.20;;;14.07;;
20166;SDS011;10243;49.118;8.508;2023-04-09T00:38:48;17.17;;;13.82;;
20166;SDS011;10243;49.118;8.508;2023-04-09T00:39:09;15.48;;;13.88;;
20166;SDS011;10243;49.118;8.508;2023-04-09T00:39:30;15.93;;;14.00;;
20166;SDS011;10243;49.118;8.508;2023-04-09T00:39:50;16.60;;;13.75;;
20166;SDS011;10243;49.118;8.508;2023-04-09T00:40:12;17.17;;;13.68;;
20166;SDS011;10243;49.118;8.508;2023-04-09T00:40:32;16.23;;;14.25;;
20166;SDS011;10243;49.118;8.508;2023-04-09T00:40:53;16.10;;;14.13;;
20166;SDS011;10243;49.118;8.508;2023-04-09T00:41:13;15.32;;;13.70;;
20166;SDS011;10243;49.118;8.508;2023-04-09T00:41:34;16.37;;;13.63;;
20166;SDS011;10243;49.118;8.508;2023-04-09T00:41:57;17.98;;;14.15;;
20166;SDS011;10243;49.118;8.508;2023-04-09T00:42:18;19.70;;;13.88;;
20166;SDS011;10243;49.118;8.508;2023-04-09T00:42:38;18.53;;;14.33;;
20166;SDS011;10243;49.118;8.508;2023-04-09T00:42:58;17.25;;;14.20;;
20166;SDS011;10243;49.118;8.508;2023-04-09T00:43:21;16.38;;;13.77;;
20166;SDS011;10243;49.118;8.508;2023-04-09T00:43:43;17.88;;;13.98;;
20166;SDS011;10243;49.118;8.508;2023-04-09T00:44:03;16.80;;;13.40;;
20166;SDS011;10243;49.118;8.508;2023-04-09T00:44:24;16.57;;;13.53;;
20166;SDS011;10243;49.118;8.508;2023-04-09T00:44:44;17.05;;;13.50;;
20166;SDS011;10243;49.118;8.508;2023-04-09T00:45:05;16.43;;;13.43;;
20166;SDS011;10243;49.118;8.508;2023-04-09T00:45:27;17.42;;;13.60;;
20166;SDS011;10243;49.118;8.508;2023-04-09T00:45:47;18.43;;;14.37;;
20166;SDS011;10243;49.118;8.508;2023-04-09T00:46:08;17.40;;;14.48;;
20166;SDS011;10243;49.118;8.508;2023-04-09T00:46:28;16.13;;;13.90;;
20166;SDS011;10243;49.118;8.508;2023-04-09T00:46:51;14.95;;;13.02;;
20166;SDS011;10243;49.118;8.508;2023-04-09T00:47:12;15.45;;;12.90;;
20166;SDS011;10243;49.118;8.508;2023-04-09T00:47:35;17.70;;;14.23;;
20166;SDS011;10243;49.118;8.508;2023-04-09T00:47:55;17.52;;;14.43;;
20166;SDS011;10243;49.118;8.508;2023-04-09T00:48:17;18.08;;;14.50;;
20166;SDS011;10243;49.118;8.508;2023-04-09T00:48:37;16.83;;;13.63;;
20166;SDS011;10243;49.118;8.508;2023-04-09T00:48:58;17.20;;;13.95;;
20166;SDS011;10243;49.118;8.508;2023-04-09T00:49:18;17.57;;;13.80;;
20166;SDS011;10243;49.118;8.508;2023-04-09T00:49:39;16.60;;;13.82;;
20166;SDS011;10243;49.118;8.508;2023-04-09T00:50:01;19.27;;;14.20;;
20166;SDS011;10243;49.118;8.508;2023-04-09T00:50:22;17.52;;;13.88;;
20166;SDS011;10243;49.118;8.508;2023-04-09T00:50:42;17.10;;;14.13;;
20166;SDS011;10243;49.118;8.508;2023-04-09T00:51:03;16.75;;;14.20;;
20166;SDS011;10243;49.118;8.508;2023-04-09T00:51:24;17.52;;;14.23;;
20166;SDS011;10243;49.118;8.508;2023-04-09T00:51:45;18.17;;;14.07;;
20166;SDS011;10243;49.118;8.508;2023-04-09T00:52:06;17.80;;;14.13;;
20166;SDS011;10243;49.118;8.508;2023-04-09T00:52:27;15.43;;;13.65;;
20166;SDS011;10243;49.118;8.508;2023-04-09T00:52:49;16.17;;;14.20;;
20166;SDS011;10243;49.118;8.508;2023-04-09T00:53:10;15.73;;;13.45;;
20166;SDS011;10243;49.118;8.508;2023-04-09T00:53:31;18.67;;;13.88;;
20166;SDS011;10243;49.118;8.508;2023-04-09T00:53:51;17.50;;;13.93;;
20166;SDS011;10243;49.118;8.508;2023-04-09T00:54:13;18.15;;;13.95;;
20166;SDS011;10243;49.118;8.508;2023-04-09T00:54:33;17.70;;;13.80;;
20166;SDS011;10243;49.118;8.508;2023-04-09T00:54:54;16.43;;;13.97;;
20166;SDS011;10243;49.118;8.508;2023-04-09T00:55:14;16.48;;;14.10;;
20166;SDS011;10243;49.118;8.508;2023-04-09T00:55:37;17.95;;;14.35;;
20166;SDS011;10243;49.118;8.508;2023-04-09T00:55:58;16.42;;;13.90;;
20166;SDS011;10243;49.118;8.508;2023-04-09T00:56:19;15.23;;;13.47;;
20166;SDS011;10243;49.118;8.508;2023-04-09T00:56:41;16.05;;;13.90;;
20166;SDS011;10243;49.118;8.508;2023-04-09T00:57:04;16.98;;;14.18;;
20166;SDS011;10243;49.118;8.508;2023-04-09T00:57:24;18.00;;;14.23;;
20166;SDS011;10243;49.118;8.508;2023-04-09T00:57:45;15.67;;;13.60;;
20166;SDS011;10243;49.118;8.508;2023-04-09T00:58:06;16.40;;;14.05;;
20166;SDS011;10243;49.118;8.508;2023-04-09T00:58:26;17.15;;;14.05;;
20166;SDS011;10243;49.118;8.508;2023-04-09T00:58:48;16.90;;;14.40;;
20166;SDS011;10243;49.118;8.508;2023-04-09T00:59:09;15.53;;;13.77;;
20166;SDS011;10243;49.118;8.508;2023-04-09T00:59:29;15.82;;;13.73;;
20166;SDS011;10243;49.118;8.508;2023-04-09T00:59:50;16.27;;;13.88;;
20166;SDS011;10243;49.118;8.508;2023-04-09T01:00:11;16.50;;;14.00;;
20166;SDS011;10243;49.118;8.508;2023-04-09T01:00:33;18.45;;;14.27;;
20166;SDS011;10243;49.118;8.508;2023-04-09T01:00:53;17.80;;;14.20;;
20166;SDS011;10243;49.118;8.508;2023-04-09T01:01:14;17.15;;;14.20;;
20166;SDS011;10243;49.118;8.508;2023-04-09T01:01:35;17.73;;;14.68;;
20166;SDS011;10243;49.118;8.508;2023-04-09T01:01:55;18.20;;;14.18;;
20166;SDS011;10243;49.118;8.508;2023-04-09T01:02:16;17.13;;;13.93;;
20166;SDS011;10243;49.118;8.508;2023-04-09T01:02:36;17.60;;;14.02;;
20166;SDS011;10243;49.118;8.508;2023-04-09T01:02:58;18.65;;;14.68;;
20166;SDS011;10243;49.118;8.508;2023-04-09T01:03:19;18.58;;;14.60;;
20166;SDS011;10243;49.118;8.508;2023-04-09T01:03:40;18.27;;;14.23;;
20166;SDS011;10243;49.118;8.508;2023-04-09T01:04:01;18.50;;;14.70;;
20166;SDS011;10243;49.118;8.508;2023-04-09T01:04:22;16.45;;;13.85;;
20166;SDS011;10243;49.118;8.508;2023-04-09T01:04:43;16.95;;;13.82;;
20166;SDS011;10243;49.118;8.508;2023-04-09T01:05:04;16.58;;;14.05;;
20166;SDS011;10243;49.118;8.508;2023-04-09T01:05:25;16.20;;;13.75;;
20166;SDS011;10243;49.118;8.508;2023-04-09T01:05:53;16.85;;;14.13;;
20166;SDS011;10243;49.118;8.508;2023-04-09T01:06:17;16.30;;;13.90;;
20166;SDS011;10243;49.118;8.508;2023-04-09T01:06:41;16.55;;;14.20;;
20166;SDS011;10243;49.118;8.508;2023-04-09T01:07:08;17.95;;;14.13;;
20166;SDS011;10243;49.118;8.508;2023-04-09T01:07:35;18.90;;;14.50;;
20166;SDS011;10243;49.118;8.508;2023-04-09T01:08:00;19.80;;;14.60;;
20166;SDS011;10243;49.118;8.508;2023-04-09T01:08:25;20.53;;;14.97;;
20166;SDS011;10243;49.118;8.508;2023-04-09T01:08:50;18.38;;;14.70;;
20166;SDS011;10243;49.118;8.508;2023-04-09T01:09:17;17.23;;;13.95;;
20166;SDS011;10243;49.118;8.508;2023-04-09T01:09:42;19.23;;;14.40;;
20166;SDS011;10243;49.118;8.508;2023-04-09T01:10:08;16.65;;;13.90;;
20166;SDS011;10243;49.118;8.508;2023-04-09T01:10:33;16.52;;;14.10;;
20166;SDS011;10243;49.118;8.508;2023-04-09T01:10:56;18.10;;;14.35;;
20166;SDS011;10243;49.118;8.508;2023-04-09T01:11:19;18.30;;;14.43;;
20166;SDS011;10243;49.118;8.508;2023-04-09T01:11:54;17.67;;;14.32;;
20166;SDS011;10243;49.118;8.508;2023-04-09T01:12:24;17.50;;;14.50;;
20166;SDS011;10243;49.118;8.508;2023-04-09T01:12:52;16.77;;;14.13;;
20166;SDS011;10243;49.118;8.508;2023-04-09T01:13:15;18.05;;;14.57;;
20166;SDS011;10243;49.118;8.508;2023-04-09T01:13:38;18.95;;;15.30;;
20166;SDS011;10243;49.118;8.508;2023-04-09T01:14:04;17.80;;;15.07;;
20166;SDS011;10243;49.118;8.508;2023-04-09T01:14:29;18.17;;;14.40;;
20166;SDS011;10243;49.118;8.508;2023-04-09T01:14:55;17.02;;;14.52;;
20166;SDS011;10243;49.118;8.508;2023-04-09T01:15:19;17.58;;;14.60;;
20166;SDS011;10243;49.118;8.508;2023-04-09T01:15:43;18.13;;;14.70;;
20166;SDS011;10243;49.118;8.508;2023-04-09T01:16:05;19.40;;;14.93;;
20166;SDS011;10243;49.118;8.508;2023-04-09T01:16:27;17.60;;;14.63;;
20166;SDS011;10243;49.118;8.508;2023-04-09T01:16:49;17.73;;;14.38;;
20166;SDS011;10243;49.118;8.508;2023-04-09T01:17:14;19.27;;;14.75;;
20166;SDS011;10243;49.118;8.508;2023-04-09T01:17:37;18.48;;;14.43;;
20166;SDS011;10243;49.118;8.508;2023-04-09T01:18:01;19.52;;;14.35;;
20166;SDS011;10243;49.118;8.508;2023-04-09T01:18:23;16.85;;;14.40;;
20166;SDS011;10243;49.118;8.508;2023-04-09T01:18:49;18.30;;;14.88;;
20166;SDS011;10243;49.118;8.508;2023-04-09T01:19:15;19.80;;;15.48;;
20166;SDS011;10243;49.118;8.508;2023-04-09T01:19:41;18.48;;;14.80;;
20166;SDS011;10243;49.118;8.508;2023-04-09T01:20:04;18.50;;;14.65;;
20166;SDS011;10243;49.118;8.508;2023-04-09T01:20:29;17.60;;;14.55;;
20166;SDS011;10243;49.118;8.508;2023-04-09T01:20:54;18.58;;;15.10;;
20166;SDS011;10243;49.118;8.508;2023-04-09T01:21:16;17.88;;;15.15;;
20166;SDS011;10243;49.118;8.508;2023-04-09T01:21:39;17.80;;;15.15;;
20166;SDS011;10243;49.118;8.508;2023-04-09T01:22:01;17.35;;;14.70;;
20166;SDS011;10243;49.118;8.508;2023-04-09T01:22:26;16.58;;;14.48;;
20166;SDS011;10243;49.118;8.508;2023-04-09T01:22:53;17.08;;;14.25;;
20166;SDS011;10243;49.118;8.508;2023-04-09T01:23:28;18.15;;;14.65;;
20166;SDS011;10243;49.118;8.508;2023-04-09T01:23:55;18.70;;;14.93;;
20166;SDS011;10243;49.118;8.508;2023-04-09T01:24:18;18.67;;;14.60;;
20166;SDS011;10243;49.118;8.508;2023-04-09T01:24:41;17.77;;;14.45;;
20166;SDS011;10243;49.118;8.508;2023-04-09T01:25:08;16.73;;;14.57;;
20166;SDS011;10243;49.118;8.508;2023-04-09T01:25:42;18.27;;;14.82;;
20166;SDS011;10243;49.118;8.508;2023-04-09T01:26:06;19.45;;;14.93;;
20166;SDS011;10243;49.118;8.508;2023-04-09T01:26:40;18.02;;;14.60;;
20166;SDS011;10243;49.118;8.508;2023-04-09T01:27:05;18.30;;;15.02;;
20166;SDS011;10243;49.118;8.508;2023-04-09T01:27:38;18.25;;;15.07;;
20166;SDS011;10243;49.118;8.508;2023-04-09T01:28:16;17.27;;;14.43;;
20166;SDS011;10243;49.118;8.508;2023-04-09T01:28:38;19.02;;;15.15;;
20166;SDS011;10243;49.118;8.508;2023-04-09T01:29:01;18.83;;;15.15;;
20166;SDS011;10243;49.118;8.508;2023-04-09T01:29:22;19.60;;;15.32;;
20166;SDS011;10243;49.118;8.508;2023-04-09T01:29:46;16.85;;;14.25;;
20166;SDS011;10243;49.118;8.508;2023-04-09T01:30:07;16.08;;;14.15;;
20166;SDS011;10243;49.118;8.508;2023-04-09T01:30:28;18.08;;;14.80;;
20166;SDS011;10243;49.118;8.508;2023-04-09T01:30:49;18.02;;;14.45;;
20166;SDS011;10243;49.118;8.508;2023-04-09T01:31:13;18.25;;;14.73;;
20166;SDS011;10243;49.118;8.508;2023-04-09T01:31:35;19.17;;;15.35;;
20166;SDS011;10243;49.118;8.508;2023-04-09T01:31:56;18.77;;;15.18;;
20166;SDS011;10243;49.118;8.508;2023-04-09T01:32:17;19.85;;;15.13;;
20166;SDS011;10243;49.118;8.508;2023-04-09T01:32:39;19.90;;;15.02;;
20166;SDS011;10243;49.118;8.508;2023-04-09T01:33:01;16.90;;;14.50;;
20166;SDS011;10243;49.118;8.508;2023-04-09T01:33:22;17.02;;;14.80;;
20166;SDS011;10243;49.118;8.508;2023-04-09T01:33:44;18.27;;;15.20;;
20166;SDS011;10243;49.118;8.508;2023-04-09T01:34:05;20.08;;;15.45;;
20166;SDS011;10243;49.118;8.508;2023-04-09T01:34:27;18.27;;;14.95;;
20166;SDS011;10243;49.118;8.508;2023-04-09T01:34:48;18.30;;;15.25;;
20166;SDS011;10243;49.118;8.508;2023-04-09T01:35:09;17.70;;;14.70;;
20166;SDS011;10243;49.118;8.508;2023-04-09T01:35:30;17.02;;;13.75;;
20166;SDS011;10243;49.118;8.508;2023-04-09T01:35:50;20.08;;;14.68;;
20166;SDS011;10243;49.118;8.508;2023-04-09T01:36:13;18.58;;;14.73;;
20166;SDS011;10243;49.118;8.508;2023-04-09T01:36:34;17.30;;;14.48;;
20166;SDS011;10243;49.118;8.508;2023-04-09T01:36:55;18.43;;;14.73;;
20166;SDS011;10243;49.118;8.508;2023-04-09T01:37:17;18.77;;;15.13;;
20166;SDS011;10243;49.118;8.508;2023-04-09T01:37:39;18.65;;;15.13;;
20166;SDS011;10243;49.118;8.508;2023-04-09T01:38:00;18.63;;;14.77;;
20166;SDS011;10243;49.118;8.508;2023-04-09T01:38:22;17.65;;;15.05;;
20166;SDS011;10243;49.118;8.508;2023-04-09T01:38:44;19.35;;;15.00;;
20166;SDS011;10243;49.118;8.508;2023-04-09T01:39:10;18.40;;;15.02;;
20166;SDS011;10243;49.118;8.508;2023-04-09T01:39:30;20.25;;;15.05;;
20166;SDS011;10243;49.118;8.508;2023-04-09T01:39:51;18.38;;;14.90;;
20166;SDS011;10243;49.118;8.508;2023-04-09T01:40:12;18.87;;;14.83;;
20166;SDS011;10243;49.118;8.508;2023-04-09T01:40:32;18.80;;;14.93;;
20166;SDS011;10243;49.118;8.508;2023-04-09T01:40:53;20.00;;;14.90;;
20166;SDS011;10243;49.118;8.508;2023-04-09T01:41:16;18.13;;;15.20;;
20166;SDS011;10243;49.118;8.508;2023-04-09T01:41:37;18.25;;;15.05;;
20166;SDS011;10243;49.118;8.508;2023-04-09T01:41:59;17.35;;;14.80;;
20166;SDS011;10243;49.118;8.508;2023-04-09T01:42:21;17.65;;;14.70;;
20166;SDS011;10243;49.118;8.508;2023-04-09T01:42:41;17.70;;;14.93;;
20166;SDS011;10243;49.118;8.508;2023-04-09T01:43:02;17.83;;;14.80;;
20166;SDS011;10243;49.118;8.508;2023-04-09T01:43:25;18.15;;;14.93;;
20166;SDS011;10243;49.118;8.508;2023-04-09T01:43:47;17.52;;;14.90;;
20166;SDS011;10243;49.118;8.508;2023-04-09T01:44:08;17.92;;;14.88;;
20166;SDS011;10243;49.118;8.508;2023-04-09T01:44:29;18.00;;;14.80;;
20166;SDS011;10243;49.118;8.508;2023-04-09T01:44:50;18.40;;;14.55;;
20166;SDS011;10243;49.118;8.508;2023-04-09T01:45:12;17.60;;;14.82;;
20166;SDS011;10243;49.118;8.508;2023-04-09T01:45:34;17.55;;;14.80;;
20166;SDS011;10243;49.118;8.508;2023-04-09T01:45:54;18.43;;;15.13;;
20166;SDS011;10243;49.118;8.508;2023-04-09T01:46:15;19.20;;;15.32;;
20166;SDS011;10243;49.118;8.508;2023-04-09T01:46:38;20.08;;;15.15;;
20166;SDS011;10243;49.118;8.508;2023-04-09T01:46:58;19.33;;;15.10;;
20166;SDS011;10243;49.118;8.508;2023-04-09T01:47:19;18.75;;;15.55;;
20166;SDS011;10243;49.118;8.508;2023-04-09T01:47:40;18.95;;;15.45;;
20166;SDS011;10243;49.118;8.508;2023-04-09T01:48:01;17.60;;;14.73;;
20166;SDS011;10243;49.118;8.508;2023-04-09T01:48:22;18.80;;;15.25;;
20166;SDS011;10243;49.118;8.508;2023-04-09T01:48:43;17.85;;;15.23;;
20166;SDS011;10243;49.118;8.508;2023-04-09T01:49:04;17.17;;;14.68;;
20166;SDS011;10243;49.118;8.508;2023-04-09T01:49:26;19.05;;;14.68;;
20166;SDS011;10243;49.118;8.508;2023-04-09T01:49:47;18.35;;;15.02;;
20166;SDS011;10243;49.118;8.508;2023-04-09T01:50:07;18.27;;;14.97;;
20166;SDS011;10243;49.118;8.508;2023-04-09T01:50:28;18.40;;;15.32;;
20166;SDS011;10243;49.118;8.508;2023-04-09T01:50:49;17.60;;;15.23;;
20166;SDS011;10243;49.118;8.508;2023-04-09T01:51:11;17.80;;;15.05;;
20166;SDS011;10243;49.118;8.508;2023-04-09T01:51:33;18.70;;;15.27;;
20166;SDS011;10243;49.118;8.508;2023-04-09T01:51:53;17.60;;;15.03;;
20166;SDS011;10243;49.118;8.508;2023-04-09T01:52:14;18.85;;;15.50;;
20166;SDS011;10243;49.118;8.508;2023-04-09T01:52:35;19.83;;;15.98;;
20166;SDS011;10243;49.118;8.508;2023-04-09T01:52:56;20.95;;;15.45;;
20166;SDS011;10243;49.118;8.508;2023-04-09T01:53:17;19.73;;;15.27;;
20166;SDS011;10243;49.118;8.508;2023-04-09T01:53:37;20.98;;;15.73;;
20166;SDS011;10243;49.118;8.508;2023-04-09T01:53:59;19.30;;;15.02;;
20166;SDS011;10243;49.118;8.508;2023-04-09T01:54:19;18.52;;;14.88;;
20166;SDS011;10243;49.118;8.508;2023-04-09T01:54:41;17.17;;;14.75;;
20166;SDS011;10243;49.118;8.508;2023-04-09T01:55:01;17.92;;;15.63;;
20166;SDS011;10243;49.118;8.508;2023-04-09T01:55:22;18.13;;;14.98;;
20166;SDS011;10243;49.118;8.508;2023-04-09T01:55:42;18.10;;;14.67;;
20166;SDS011;10243;49.118;8.508;2023-04-09T01:56:04;19.27;;;15.35;;
20166;SDS011;10243;49.118;8.508;2023-04-09T01:56:24;19.17;;;15.60;;
20166;SDS011;10243;49.118;8.508;2023-04-09T01:56:46;18.17;;;15.23;;
20166;SDS011;10243;49.118;8.508;2023-04-09T01:57:06;18.38;;;14.77;;
20166;SDS011;10243;49.118;8.508;2023-04-09T01:57:28;20.00;;;15.00;;
20166;SDS011;10243;49.118;8.508;2023-04-09T01:57:49;17.77;;;14.88;;
20166;SDS011;10243;49.118;8.508;2023-04-09T01:58:10;19.40;;;15.47;;
20166;SDS011;10243;49.118;8.508;2023-04-09T01:58:32;20.73;;;15.77;;
20166;SDS011;10243;49.118;8.508;2023-04-09T01:58:53;20.90;;;14.93;;
20166;SDS011;10243;49.118;8.508;2023-04-09T01:59:14;19.13;;;15.00;;
20166;SDS011;10243;49.118;8.508;2023-04-09T01:59:35;18.20;;;14.97;;
20166;SDS011;10243;49.118;8.508;2023-04-09T01:59:55;17.83;;;14.88;;
20166;SDS011;10243;49.118;8.508;2023-04-09T02:00:16;19.17;;;15.20;;
20166;SDS011;10243;49.118;8.508;2023-04-09T02:00:38;18.00;;;14.80;;
20166;SDS011;10243;49.118;8.508;2023-04-09T02:01:01;17.77;;;14.65;;
20166;SDS011;10243;49.118;8.508;2023-04-09T02:01:25;18.23;;;15.15;;
20166;SDS011;10243;49.118;8.508;2023-04-09T02:01:49;18.70;;;14.88;;
20166;SDS011;10243;49.118;8.508;2023-04-09T02:02:13;18.23;;;14.55;;
20166;SDS011;10243;49.118;8.508;2023-04-09T02:02:36;18.67;;;15.15;;
20166;SDS011;10243;49.118;8.508;2023-04-09T02:02:58;19.50;;;15.25;;
20166;SDS011;10243;49.118;8.508;2023-04-09T02:03:22;17.75;;;14.80;;
20166;SDS011;10243;49.118;8.508;2023-04-09T02:03:45;19.15;;;15.27;;
20166;SDS011;10243;49.118;8.508;2023-04-09T02:04:07;19.13;;;15.35;;
20166;SDS011;10243;49.118;8.508;2023-04-09T02:04:29;19.00;;;14.70;;
20166;SDS011;10243;49.118;8.508;2023-04-09T02:04:52;18.63;;;14.98;;
20166;SDS011;10243;49.118;8.508;2023-04-09T02:05:14;18.67;;;15.10;;
20166;SDS011;10243;49.118;8.508;2023-04-09T02:05:36;18.33;;;15.20;;
20166;SDS011;10243;49.118;8.508;2023-04-09T02:06:00;17.77;;;15.07;;
20166;SDS011;10243;49.118;8.508;2023-04-09T02:06:24;18.58;;;15.40;;
20166;SDS011;10243;49.118;8.508;2023-04-09T02:06:47;17.40;;;15.10;;
20166;SDS011;10243;49.118;8.508;2023-04-09T02:07:14;19.13;;;15.30;;
20166;SDS011;10243;49.118;8.508;2023-04-09T02:07:37;18.90;;;15.35;;
20166;SDS011;10243;49.118;8.508;2023-04-09T02:07:58;17.60;;;14.70;;